ADDS METAR Data INFO
IDs: Format: Raw Decoded Include TAF

Data at: 1202 UTC 21 Jun 2018

KAIO 211155Z AUTO 21006KT 10SM FEW016 OVC022 17/16 A2968 RMK AO2
KAIO 211135Z AUTO 23007KT 10SM OVC020 17/16 A2968 RMK AO2
KAIO 211115Z AUTO 24009G16KT 10SM BKN019 BKN024 BKN038 16/16 A2968 RMK AO2
KAIO 211055Z AUTO 24009G15KT 10SM FEW010 BKN018 OVC039 16/16 A2968 RMK AO2
KAIO 211035Z AUTO 25008KT 10SM SCT010 OVC016 16/16 A2968 RMK AO2
KAIO 211015Z AUTO 25007KT 10SM BKN006 BKN010 OVC015 16/16 A2968 RMK AO2
KAIO 210955Z AUTO 24008KT 5SM BR OVC005 16/16 A2969 RMK AO2
KAIO 210935Z AUTO 24007KT 2 1/2SM BR OVC006 16/16 A2969 RMK AO2
KAIO 210915Z AUTO 24006KT 9SM OVC006 16/16 A2969 RMK AO2
KAIO 210855Z AUTO 24007KT 7SM OVC007 16/16 A2969 RMK AO2
KAIO 210835Z AUTO 25009KT 6SM BR OVC006 16/16 A2970 RMK AO2
KAIO 210815Z AUTO 24007KT 3SM BR BKN007 OVC011 16/16 A2970 RMK AO2
KAIO 210755Z AUTO 26008KT 9SM BKN007 OVC012 16/16 A2970 RMK AO2
KAIO 210735Z AUTO 26010KT 7SM OVC006 16/16 A2970 RMK AO2
KAIO 210715Z AUTO 26011KT 8SM OVC007 17/16 A2970 RMK AO2
KAIO 210655Z AUTO 24008KT 8SM BKN007 OVC013 17/17 A2971 RMK AO2
KAIO 210635Z AUTO 24009KT 1 3/4SM -RA OVC007 17/17 A2971 RMK AO2
KAIO 210615Z AUTO 24007KT 5SM BR OVC009 18/17 A2972 RMK AO2
KAIO 210555Z AUTO 25009KT 7SM OVC007 18/17 A2972 RMK AO2
KAIO 210535Z AUTO 23010KT 3SM BR OVC006 18/17 A2973 RMK AO2
KAIO 210515Z AUTO 22008KT 2 1/2SM BR BKN005 OVC009 18/17 A2973 RMK AO2
KAIO 210455Z AUTO 23007KT 2 1/2SM BR OVC006 18/17 A2974 RMK AO2
KAIO 210435Z AUTO 23009KT 2 1/2SM BR BKN007 OVC011 18/17 A2974 RMK AO2
KAIO 210415Z AUTO 24008KT 4SM BR OVC010 18/17 A2974 RMK AO2
KAIO 210355Z AUTO 26012KT 10SM OVC011 18/17 A2975 RMK AO2
KAIO 210335Z AUTO 25010KT 10SM BKN011 BKN015 OVC029 18/17 A2975 RMK AO2
KAIO 210315Z AUTO 26011G19KT 10SM SCT013 OVC029 18/17 A2975 RMK AO2
KAIO 210255Z AUTO 25010KT 10SM BKN012 OVC030 19/17 A2975 RMK AO2
KAIO 210235Z AUTO 25010KT 10SM BKN012 BKN027 OVC031 19/17 A2975 RMK AO2
KAIO 210215Z AUTO 26008G15KT 10SM FEW021 OVC032 19/17 A2975 RMK AO2
KAIO 210155Z AUTO 26011KT 10SM BKN033 BKN039 19/17 A2975 RMK AO2
KAIO 210135Z AUTO 26008KT 10SM FEW014 SCT039 19/17 A2975 RMK AO2
KAIO 210115Z AUTO 28008G14KT 10SM SCT015 SCT042 20/18 A2976 RMK AO2
KAIO 210055Z AUTO 28009G15KT 10SM SCT015 BKN044 20/18 A2977 RMK AO2
KAIO 210035Z AUTO 30011G18KT 10SM FEW021 FEW026 OVC046 20/18 A2978 RMK AO2
KAIO 210015Z AUTO 29013G19KT 10SM FEW018 SCT022 OVC047 20/18 A2977 RMK AO2
KAIO 202355Z AUTO 30010G16KT 10SM SCT016 SCT022 BKN044 21/19 A2976 RMK AO2
KAIO 202335Z AUTO 29010G15KT 2SM -DZ SCT015 SCT020 SCT026 21/19 A2975 RMK AO2
KAIO 202315Z AUTO 30011G16KT 5SM BR FEW015 FEW020 SCT041 21/20 A2974 RMK AO2
KAIO 202255Z AUTO 29014G21KT 5SM RA FEW015 SCT020 BKN035 21/19 A2974 RMK AO2
KAIO 202235Z AUTO 26011G18KT 5SM HZ FEW020 FEW026 BKN033 22/19 A2974 RMK AO2
KAIO 202215Z AUTO 29011KT 9SM 23/20 A2974 RMK AO2
KAIO 202155Z AUTO 28010G17KT 10SM 22/19 A2974 RMK AO2
KAIO 202135Z AUTO 29013KT 10SM 23/19 A2974 RMK AO2
KAIO 202115Z AUTO 27012KT 10SM 23/19 A2975 RMK AO2
KAIO 202055Z AUTO 29012G18KT 10SM 23/20 A2975 RMK AO2
KAIO 202035Z AUTO 29014G21KT 10SM 23/19 A2975 RMK AO2
KAIO 202015Z AUTO 29012G19KT 8SM 22/20 A2975 RMK AO2
KAIO 201955Z AUTO 29012G17KT 10SM 23/20 A2976 RMK AO2
KAIO 201935Z AUTO 31014KT 10SM 23/20 A2975 RMK AO2
KAIO 201915Z AUTO 28013KT 10SM 23/20 A2976 RMK AO2
KAIO 201855Z AUTO 29012G18KT 10SM 23/20 A2976 RMK AO2 P0001
KAIO 201835Z AUTO 28010G16KT 3SM -DZ SCT016 BKN021 BKN028 22/21 A2977 RMK AO2
KAIO 201815Z AUTO 28011KT 8SM 23/21 A2977 RMK AO2
KAIO 201755Z AUTO 28010KT 10SM -RA 23/22 A2978 RMK AO2 P0001
KAIO 201735Z AUTO 28009G15KT 1SM RA FEW002 SCT017 BKN026 22/21 A2978 RMK AO2 VIS 1/2V5
KAIO 201715Z AUTO 25005KT 3SM -DZ FEW014 SCT018 BKN025 23/22 A2978 RMK AO2
KAIO 201655Z AUTO 22006KT 10SM SCT015 BKN024 OVC030 24/21 A2978 RMK AO2
KAIO 201635Z AUTO 22006KT 10SM BKN014 OVC020 23/21 A2979 RMK AO2
KAIO 201615Z AUTO 00000KT 10SM BKN014 23/21 A2979 RMK AO2
KAIO 201555Z AUTO 16004KT 10SM SCT006 BKN014 22/21 A2980 RMK AO2
KAIO 201535Z AUTO 09005KT 4SM BR BKN006 22/21 A2979 RMK AO2
KAIO 201515Z AUTO 07005G10KT 9SM BKN005 22/21 A2980 RMK AO2
KAIO 201455Z AUTO 06006KT 7SM OVC006 21/21 A2980 RMK AO2
KAIO 201435Z AUTO 01006KT 10SM OVC008 21/20 A2981 RMK AO2
KAIO 201415Z AUTO 02007KT 10SM OVC008 21/20 A2981 RMK AO2
KAIO 201355Z AUTO 02007KT 10SM OVC009 21/20 A2981 RMK AO2
KAIO 201335Z AUTO 01006KT 10SM BKN009 BKN013 21/20 A2981 RMK AO2
KAIO 201315Z AUTO 36006KT 10SM BKN011 21/20 A2981 RMK AO2
KAIO 201255Z AUTO 33006KT 10SM BKN011 BKN070 21/20 A2982 RMK AO2
KAIO 201235Z AUTO 35007KT 10SM SCT010 SCT070 22/20 A2981 RMK AO2
KAIO 201215Z AUTO 36006KT 10SM SCT010 BKN070 21/21 A2982 RMK AO2
KAIO 201155Z AUTO 35004KT 10SM SCT011 BKN070 BKN100 21/21 A2983 RMK AO2
KAIO 201135Z AUTO 01005KT 10SM BKN075 OVC100 21/21 A2983 RMK AO2
KAIO 201115Z AUTO 00000KT 10SM SCT013 OVC075 21/21 A2985 RMK AO2
KAIO 201055Z AUTO 01003KT 10SM OVC013 21/21 A2986 RMK AO2
KAIO 201035Z AUTO 32005KT 10SM FEW010 SCT015 OVC070 21/21 A2986 RMK AO2
KAIO 201015Z AUTO 28004KT 10SM BKN010 OVC075 21/21 A2986 RMK AO2
KAIO 200955Z AUTO 00000KT 10SM OVC010 21/20 A2986 RMK AO2
KAIO 200935Z AUTO 23003KT 10SM OVC009 21/21 A2986 RMK AO2
KAIO 200915Z AUTO 00000KT 10SM OVC009 21/20 A2985 RMK AO2
KAIO 200855Z AUTO 00000KT 10SM OVC009 21/20 A2985 RMK AO2
KAIO 200835Z AUTO 00000KT 10SM BKN009 BKN013 21/20 A2986 RMK AO2
KAIO 200815Z AUTO VRB04G12KT 10SM CLR 21/20 A2986 RMK AO2
KAIO 200755Z AUTO 33008KT 10SM CLR 21/20 A2984 RMK AO2
KAIO 200735Z AUTO 26003KT 10SM SCT049 SCT075 20/20 A2987 RMK AO2
KAIO 200715Z AUTO 00000KT 10SM BKN070 21/20 A2988 RMK AO2
KAIO 200655Z AUTO 19004KT 10SM FEW046 FEW055 SCT070 21/20 A2987 RMK AO2
KAIO 200635Z AUTO 23003KT 10SM -DZ SCT039 BKN049 BKN055 21/20 A2987 RMK AO2
KAIO 200615Z AUTO 33005KT 10SM OVC034 21/20 A2989 RMK AO2
KAIO 200555Z AUTO 00000KT 10SM SCT025 BKN030 OVC036 21/20 A2990 RMK AO2
KAIO 200535Z AUTO 24005KT 10SM BKN025 BKN031 OVC060 21/20 A2989 RMK AO2
KAIO 200515Z AUTO 00000KT 10SM FEW023 SCT032 BKN040 21/20 A2989 RMK AO2
KAIO 200455Z AUTO 22004KT 10SM SCT023 SCT039 BKN060 21/19 A2990 RMK AO2
KAIO 200435Z AUTO 22008KT 10SM FEW046 SCT060 21/19 A2989 RMK AO2
KAIO 200415Z AUTO 20008KT 10SM FEW040 FEW046 SCT060 21/19 A2988 RMK AO2
KAIO 200355Z AUTO 16007KT 10SM FEW030 SCT037 SCT050 23/21 A2988 RMK AO2 P0001
KAIO 200335Z AUTO 18007G13KT 10SM SCT025 BKN030 BKN038 24/23 A2989 RMK AO2
KAIO 200315Z AUTO 18005KT 10SM BKN024 OVC037 24/24 A2989 RMK AO2
KAIO 200255Z AUTO 16005KT 3SM +RA FEW003 BKN023 OVC055 24/24 A2988 RMK AO2 P0003
KAIO 200235Z AUTO 18006KT 1 3/4SM +RA SCT003 BKN015 OVC025 25/24 A2986 RMK AO2
KAIO 200215Z AUTO VRB03KT 9SM BKN015 OVC029 25/24 A2986 RMK AO2
KAIO 200155Z AUTO 00000KT 9SM SCT017 BKN034 OVC065 25/24 A2985 RMK AO2
KAIO 200135Z AUTO 03004KT 9SM SCT021 BKN032 OVC065 25/25 A2985 RMK AO2
KAIO 200115Z AUTO 00000KT 10SM FEW023 BKN031 OVC065 26/24 A2986 RMK AO2
KAIO 200055Z AUTO 00000KT 10SM BKN030 BKN065 26/24 A2986 RMK AO2
KAIO 200035Z AUTO 00000KT 10SM FEW030 SCT050 BKN060 26/24 A2986 RMK AO2
KAIO 200015Z AUTO 00000KT 10SM BKN050 OVC060 26/25 A2986 RMK AO2